createdAt,value
2023-12-10T00:00:54.800Z,35.19
2023-12-10T00:01:54.759Z,35.22
2023-12-10T00:02:54.763Z,35.19
2023-12-10T00:03:54.790Z,35.19
2023-12-10T00:04:54.670Z,35.18
2023-12-10T00:06:04.206Z,35.17
2023-12-10T00:06:55.695Z,35.16
2023-12-10T00:07:54.650Z,35.12
2023-12-10T00:08:54.709Z,35.17
2023-12-10T00:09:54.657Z,35.16
2023-12-10T00:10:54.602Z,35.13
2023-12-10T00:11:54.609Z,35.12
2023-12-10T00:12:54.611Z,35.11
2023-12-10T00:13:54.591Z,35.07
2023-12-10T00:14:54.570Z,35.08
2023-12-10T00:15:54.612Z,35.08
2023-12-10T00:16:54.544Z,35.08
2023-12-10T00:17:54.555Z,35.06
2023-12-10T00:18:54.608Z,35.08
2023-12-10T00:19:54.641Z,35.06
2023-12-10T00:20:54.502Z,35.05
2023-12-10T00:21:54.553Z,35.01
2023-12-10T00:22:54.487Z,35.02
2023-12-10T00:23:54.491Z,35.00
2023-12-10T00:24:54.545Z,35.01
2023-12-10T00:25:54.480Z,34.98
2023-12-10T00:26:54.467Z,35.02
2023-12-10T00:27:54.515Z,34.93
2023-12-10T00:28:54.452Z,34.96
2023-12-10T00:29:54.451Z,34.95
2023-12-10T00:30:54.466Z,34.92
2023-12-10T00:31:54.426Z,34.92
2023-12-10T00:32:54.408Z,34.91
2023-12-10T00:33:54.504Z,34.91
2023-12-10T00:34:54.478Z,34.87
2023-12-10T00:35:54.396Z,34.87
2023-12-10T00:36:54.440Z,34.87
2023-12-10T00:37:54.370Z,34.86
2023-12-10T00:38:54.349Z,34.81
2023-12-10T00:39:54.420Z,34.85
2023-12-10T00:40:54.350Z,34.83
2023-12-10T00:41:54.320Z,34.79
2023-12-10T00:42:54.394Z,34.77
2023-12-10T00:43:54.308Z,34.80
2023-12-10T00:44:54.288Z,34.80
2023-12-10T00:45:54.562Z,34.77
2023-12-10T00:46:54.273Z,34.79
2023-12-10T00:47:54.390Z,34.79
2023-12-10T00:48:54.338Z,34.76
2023-12-10T00:49:54.255Z,34.76
2023-12-10T00:50:54.267Z,34.73
2023-12-10T00:51:54.269Z,34.72
2023-12-10T00:52:54.224Z,34.72
2023-12-10T00:53:54.231Z,34.72
2023-12-10T00:54:54.267Z,34.73
2023-12-10T00:55:54.233Z,34.69
2023-12-10T00:56:54.193Z,34.70
2023-12-10T00:57:54.197Z,34.69
2023-12-10T00:58:54.165Z,34.65
2023-12-10T00:59:54.186Z,34.68
2023-12-10T01:00:54.299Z,34.63
2023-12-10T01:01:54.147Z,34.62
2023-12-10T01:02:54.133Z,34.61
2023-12-10T01:03:54.171Z,34.56
2023-12-10T01:04:54.199Z,34.61
2023-12-10T01:05:54.104Z,34.59
2023-12-10T01:06:54.110Z,34.56
2023-12-10T01:07:54.089Z,34.59
2023-12-10T01:08:54.071Z,34.59
2023-12-10T01:09:54.144Z,34.58
2023-12-10T01:10:54.053Z,34.56
2023-12-10T01:11:54.037Z,34.54
2023-12-10T01:12:54.155Z,34.54
2023-12-10T01:13:54.029Z,34.56
2023-12-10T01:14:54.032Z,34.55
2023-12-10T01:15:54.039Z,34.59
2023-12-10T01:16:53.994Z,34.58
2023-12-10T01:17:54.022Z,34.57
2023-12-10T01:18:54.051Z,34.47
2023-12-10T01:19:53.988Z,34.54
2023-12-10T01:20:53.966Z,34.52
2023-12-10T01:21:53.977Z,34.49
2023-12-10T01:22:53.939Z,34.54
2023-12-10T01:23:53.952Z,34.48
2023-12-10T01:24:53.994Z,34.41
2023-12-10T01:25:54.000Z,34.46
2023-12-10T01:26:54.602Z,34.46
2023-12-10T01:27:53.936Z,34.45
2023-12-10T01:28:53.881Z,34.42
2023-12-10T01:29:53.890Z,34.44
2023-12-10T01:30:53.937Z,34.45
2023-12-10T01:31:53.884Z,34.40
2023-12-10T01:32:54.031Z,34.47
2023-12-10T01:33:54.145Z,34.44
2023-12-10T01:34:53.968Z,34.41
2023-12-10T01:35:54.203Z,34.40
2023-12-10T01:36:53.816Z,34.39
2023-12-10T01:37:53.826Z,34.38
2023-12-10T01:38:53.862Z,34.41
2023-12-10T01:39:53.800Z,34.40
2023-12-10T01:40:53.776Z,34.43
2023-12-10T01:41:53.785Z,34.35
2023-12-10T01:42:53.831Z,34.34
2023-12-10T01:43:53.775Z,34.33
2023-12-10T01:44:53.743Z,34.33
2023-12-10T01:45:53.765Z,34.34
2023-12-10T01:46:53.738Z,34.36
2023-12-10T01:47:53.875Z,34.34
2023-12-10T01:48:53.738Z,34.33
2023-12-10T01:49:53.709Z,34.32
2023-12-10T01:50:53.688Z,34.30
2023-12-10T01:51:53.705Z,34.32
2023-12-10T01:52:53.678Z,34.28
2023-12-10T01:53:53.671Z,34.29
2023-12-10T01:54:53.679Z,34.29
2023-12-10T01:55:53.652Z,34.27
2023-12-10T01:57:00.223Z,34.25
2023-12-10T01:57:54.690Z,34.24
2023-12-10T01:58:53.620Z,34.24
2023-12-10T01:59:53.613Z,34.25
2023-12-10T02:00:53.703Z,34.27
2023-12-10T02:01:53.596Z,34.27
2023-12-10T02:02:53.602Z,34.23
2023-12-10T02:03:53.726Z,34.25
2023-12-10T02:04:53.699Z,34.21
2023-12-10T02:05:53.688Z,34.27
2023-12-10T02:06:53.615Z,34.20
2023-12-10T02:07:53.575Z,34.20
2023-12-10T02:08:53.524Z,34.16
2023-12-10T02:09:53.561Z,34.23
2023-12-10T02:10:53.541Z,34.21
2023-12-10T02:11:53.512Z,34.18
2023-12-10T02:12:53.597Z,34.19
2023-12-10T02:13:53.495Z,34.18
2023-12-10T02:14:53.473Z,34.20
2023-12-10T02:15:53.559Z,34.16
2023-12-10T02:16:53.457Z,34.13
2023-12-10T02:17:53.518Z,34.13
2023-12-10T02:18:53.505Z,34.08
2023-12-10T02:19:53.509Z,34.12
2023-12-10T02:20:53.433Z,34.13
2023-12-10T02:21:53.453Z,34.10
2023-12-10T02:22:53.390Z,34.09
2023-12-10T02:23:53.391Z,34.11
2023-12-10T02:24:53.497Z,34.10
2023-12-10T02:25:53.378Z,34.07
2023-12-10T02:26:53.377Z,34.09
2023-12-10T02:27:53.409Z,34.09
2023-12-10T02:28:53.362Z,34.04
2023-12-10T02:29:53.332Z,34.12
2023-12-10T02:30:53.402Z,34.09
2023-12-10T02:31:53.324Z,34.05
2023-12-10T02:32:53.325Z,34.04
2023-12-10T02:33:53.415Z,34.07
2023-12-10T02:34:53.298Z,34.07
2023-12-10T02:35:53.297Z,34.05
2023-12-10T02:36:53.309Z,34.06
2023-12-10T02:37:53.279Z,34.02
2023-12-10T02:38:53.257Z,34.04
2023-12-10T02:39:53.331Z,34.04
2023-12-10T02:40:53.237Z,34.03
2023-12-10T02:41:53.229Z,34.06
2023-12-10T02:42:53.254Z,34.06
2023-12-10T02:43:53.217Z,34.07
2023-12-10T02:44:53.195Z,34.03
2023-12-10T02:45:53.207Z,34.03
2023-12-10T02:46:53.175Z,34.07
2023-12-10T02:47:53.305Z,34.06
2023-12-10T02:48:53.206Z,34.08
2023-12-10T02:49:53.223Z,34.09
2023-12-10T02:50:53.145Z,34.07
2023-12-10T02:51:53.260Z,34.09
2023-12-10T02:52:53.135Z,34.10
2023-12-10T02:53:53.114Z,34.06
2023-12-10T02:54:53.157Z,34.07
2023-12-10T02:55:53.116Z,34.04
2023-12-10T02:56:53.103Z,34.10
2023-12-10T02:57:53.108Z,34.07
2023-12-10T02:58:53.085Z,34.11
2023-12-10T02:59:53.054Z,34.09
2023-12-10T03:00:53.173Z,34.09
2023-12-10T03:01:53.032Z,34.09
2023-12-10T03:02:53.086Z,34.11
2023-12-10T03:03:53.045Z,34.06
2023-12-10T03:04:53.038Z,34.09
2023-12-10T03:05:52.989Z,34.06
2023-12-10T03:06:53.033Z,34.08
2023-12-10T03:07:52.993Z,34.08
2023-12-10T03:08:52.989Z,34.05
2023-12-10T03:09:52.967Z,34.09
2023-12-10T03:10:52.966Z,34.08
2023-12-10T03:11:52.952Z,34.06
2023-12-10T03:12:53.054Z,34.06
2023-12-10T03:13:52.931Z,34.03
2023-12-10T03:14:52.917Z,34.10
2023-12-10T03:15:52.951Z,34.05
2023-12-10T03:16:52.900Z,34.09
2023-12-10T03:17:53.000Z,34.04
2023-12-10T03:18:52.990Z,34.04
2023-12-10T03:19:52.874Z,34.03
2023-12-10T03:20:52.859Z,34.09
2023-12-10T03:21:52.897Z,34.05
2023-12-10T03:22:52.862Z,34.08
2023-12-10T03:23:52.835Z,34.04
2023-12-10T03:24:52.883Z,34.07
2023-12-10T03:25:52.816Z,34.05
2023-12-10T03:26:52.810Z,34.05
2023-12-10T03:27:52.977Z,34.03
2023-12-10T03:28:52.802Z,34.05
2023-12-10T03:29:57.785Z,34.03
2023-12-10T03:30:52.788Z,34.03
2023-12-10T03:31:52.758Z,34.05
2023-12-10T03:32:52.878Z,34.03
2023-12-10T03:33:52.830Z,34.01
2023-12-10T03:34:52.819Z,34.05
2023-12-10T03:35:52.731Z,34.08
2023-12-10T03:36:52.748Z,34.00
2023-12-10T03:37:52.715Z,34.04
2023-12-10T03:38:52.699Z,34.05
2023-12-10T03:39:52.787Z,34.03
2023-12-10T03:40:52.676Z,34.04
2023-12-10T03:41:52.667Z,34.03
2023-12-10T03:42:52.688Z,33.99
2023-12-10T03:43:52.653Z,34.04
2023-12-10T03:44:52.638Z,34.00
2023-12-10T03:45:52.734Z,33.99
2023-12-10T03:46:52.618Z,34.03
2023-12-10T03:47:52.658Z,34.02
2023-12-10T03:48:52.678Z,34.01
2023-12-10T03:49:52.786Z,34.01
2023-12-10T03:50:52.620Z,33.99
2023-12-10T03:51:52.601Z,34.02
2023-12-10T03:52:52.621Z,34.03
2023-12-10T03:53:52.545Z,33.99
2023-12-10T03:54:52.605Z,34.00
2023-12-10T03:55:52.536Z,33.96
2023-12-10T03:56:52.553Z,33.98
2023-12-10T03:57:52.611Z,34.00
2023-12-10T03:58:52.513Z,33.98
2023-12-10T03:59:52.493Z,34.00
2023-12-10T04:00:52.557Z,34.00
2023-12-10T04:01:52.473Z,34.00
2023-12-10T04:02:52.507Z,34.01
2023-12-10T04:03:52.660Z,34.03
2023-12-10T04:04:52.475Z,34.00
2023-12-10T04:05:52.481Z,33.99
2023-12-10T04:06:52.463Z,34.05
2023-12-10T04:07:52.461Z,34.00
2023-12-10T04:08:52.419Z,34.03
2023-12-10T04:10:02.417Z,33.98
2023-12-10T04:10:52.414Z,33.99
2023-12-10T04:11:52.382Z,33.99
2023-12-10T04:12:52.485Z,33.97
2023-12-10T04:13:52.410Z,33.98
2023-12-10T04:14:57.373Z,33.96
2023-12-10T04:15:52.488Z,33.97
2023-12-10T04:16:52.363Z,33.96
2023-12-10T04:17:52.401Z,33.94
2023-12-10T04:18:52.456Z,34.00
2023-12-10T04:19:52.468Z,33.98
2023-12-10T04:20:52.316Z,33.94
2023-12-10T04:21:52.474Z,33.98
2023-12-10T04:22:52.289Z,33.92
2023-12-10T04:23:52.286Z,33.94
2023-12-10T04:24:52.353Z,33.90
2023-12-10T04:25:52.254Z,33.96
2023-12-10T04:26:52.258Z,33.98
2023-12-10T04:27:52.373Z,33.96
2023-12-10T04:28:52.255Z,33.96
2023-12-10T04:29:52.236Z,33.92
2023-12-10T04:30:52.266Z,33.97
2023-12-10T04:31:52.202Z,33.98
2023-12-10T04:32:52.273Z,33.97
2023-12-10T04:33:52.245Z,33.97
2023-12-10T04:34:52.203Z,33.97
2023-12-10T04:35:52.171Z,33.96
2023-12-10T04:36:52.180Z,33.97
2023-12-10T04:37:52.166Z,33.95
2023-12-10T04:38:52.137Z,33.93
2023-12-10T04:39:52.217Z,33.95
2023-12-10T04:40:52.141Z,33.96
2023-12-10T04:41:52.105Z,34.00
2023-12-10T04:42:52.151Z,33.95
2023-12-10T04:43:52.082Z,33.98
2023-12-10T04:44:52.089Z,33.92
2023-12-10T04:45:52.155Z,33.92
2023-12-10T04:46:52.071Z,33.94
2023-12-10T04:47:52.184Z,33.88
2023-12-10T04:48:52.137Z,33.95
2023-12-10T04:49:52.073Z,33.92
2023-12-10T04:50:52.045Z,33.92
2023-12-10T04:51:52.085Z,33.95
2023-12-10T04:52:52.018Z,33.91
2023-12-10T04:53:52.015Z,33.94
2023-12-10T04:54:52.022Z,33.91
2023-12-10T04:55:51.981Z,33.95
2023-12-10T04:56:51.980Z,33.95
2023-12-10T04:57:51.983Z,33.96
2023-12-10T04:58:51.962Z,33.95
2023-12-10T04:59:51.956Z,33.92
2023-12-10T05:00:51.999Z,33.92
2023-12-10T05:01:51.995Z,33.94
2023-12-10T05:02:51.963Z,33.92
2023-12-10T05:03:51.961Z,33.94
2023-12-10T05:04:51.901Z,33.91
2023-12-10T05:05:51.902Z,33.91
2023-12-10T05:06:51.971Z,33.94
2023-12-10T05:07:51.874Z,33.94
2023-12-10T05:08:51.857Z,33.91
2023-12-10T05:09:51.861Z,33.91
2023-12-10T05:10:51.848Z,33.94
2023-12-10T05:11:51.827Z,33.92
2023-12-10T05:12:51.891Z,33.91
2023-12-10T05:13:51.812Z,33.94
2023-12-10T05:14:51.813Z,33.90
2023-12-10T05:15:51.852Z,33.91
2023-12-10T05:16:51.794Z,33.97
2023-12-10T05:17:51.866Z,33.92
2023-12-10T05:18:51.859Z,33.92
2023-12-10T05:19:51.765Z,33.89
2023-12-10T05:20:51.757Z,33.90
2023-12-10T05:21:51.859Z,33.95
2023-12-10T05:22:51.791Z,33.90
2023-12-10T05:23:51.719Z,33.92
2023-12-10T05:24:51.734Z,33.92
2023-12-10T05:25:51.714Z,33.89
2023-12-10T05:26:51.695Z,33.90
2023-12-10T05:27:51.709Z,33.90
2023-12-10T05:28:51.685Z,33.91
2023-12-10T05:29:51.673Z,33.95
2023-12-10T05:30:51.687Z,33.91
2023-12-10T05:31:51.657Z,33.94
2023-12-10T05:32:51.777Z,33.92
2023-12-10T05:33:51.698Z,33.90
2023-12-10T05:34:51.892Z,33.92
2023-12-10T05:35:51.613Z,33.91
2023-12-10T05:36:51.652Z,33.95
2023-12-10T05:37:51.585Z,33.91
2023-12-10T05:38:51.597Z,33.90
2023-12-10T05:39:51.692Z,33.92
2023-12-10T05:40:51.576Z,33.91
2023-12-10T05:41:51.548Z,33.97
2023-12-10T05:42:51.572Z,34.00
2023-12-10T05:43:51.528Z,33.97
2023-12-10T05:44:51.530Z,33.95
2023-12-10T05:45:51.586Z,33.98
2023-12-10T05:46:51.517Z,33.97
2023-12-10T05:47:51.602Z,33.94
2023-12-10T05:48:51.646Z,33.94
2023-12-10T05:49:51.595Z,33.98
2023-12-10T05:50:51.467Z,33.97
2023-12-10T05:51:51.558Z,33.95
2023-12-10T05:52:51.452Z,33.97
2023-12-10T05:53:51.456Z,33.95
2023-12-10T05:54:51.477Z,33.97
2023-12-10T05:55:51.440Z,33.95
2023-12-10T05:56:51.428Z,33.96
2023-12-10T05:57:51.486Z,33.99
2023-12-10T05:58:51.404Z,34.00
2023-12-10T05:59:51.396Z,34.00
2023-12-10T06:00:51.431Z,33.98
2023-12-10T06:01:51.376Z,33.99
2023-12-10T06:02:51.384Z,34.00
2023-12-10T06:03:51.427Z,34.00
2023-12-10T06:04:51.432Z,34.03
2023-12-10T06:05:51.423Z,34.04
2023-12-10T06:06:51.374Z,34.01
2023-12-10T06:07:51.703Z,34.08
2023-12-10T06:08:51.326Z,34.05
2023-12-10T06:09:51.350Z,34.04
2023-12-10T06:10:51.306Z,34.00
2023-12-10T06:11:51.275Z,34.05
2023-12-10T06:12:51.396Z,34.06
2023-12-10T06:13:51.251Z,34.06
2023-12-10T06:14:51.257Z,34.04
2023-12-10T06:15:51.293Z,34.08
2023-12-10T06:16:51.242Z,34.07
2023-12-10T06:17:51.355Z,34.08
2023-12-10T06:18:51.340Z,34.07
2023-12-10T06:19:51.193Z,34.13
2023-12-10T06:20:51.201Z,34.14
2023-12-10T06:21:51.248Z,34.08
2023-12-10T06:22:51.188Z,34.10
2023-12-10T06:23:51.170Z,34.12
2023-12-10T06:24:51.181Z,34.10
2023-12-10T06:25:51.152Z,34.09
2023-12-10T06:26:51.140Z,34.09
2023-12-10T06:27:51.149Z,34.10
2023-12-10T06:28:51.151Z,34.12
2023-12-10T06:29:51.112Z,34.09
2023-12-10T06:30:51.159Z,34.10
2023-12-10T06:31:51.093Z,34.10
2023-12-10T06:32:52.342Z,34.05
2023-12-10T06:33:51.234Z,34.10
2023-12-10T06:34:51.107Z,34.07
2023-12-10T06:35:51.051Z,34.10
2023-12-10T06:36:51.123Z,34.07
2023-12-10T06:37:51.040Z,34.08
2023-12-10T06:38:51.049Z,34.07
2023-12-10T06:39:51.061Z,34.10
2023-12-10T06:40:51.025Z,34.14
2023-12-10T06:41:50.997Z,34.10
2023-12-10T06:42:51.025Z,34.14
2023-12-10T06:43:50.975Z,34.10
2023-12-10T06:44:50.976Z,34.14
2023-12-10T06:45:51.011Z,34.10
2023-12-10T06:46:50.990Z,34.06
2023-12-10T06:47:50.981Z,34.08
2023-12-10T06:48:51.036Z,34.09
2023-12-10T06:49:51.038Z,34.09
2023-12-10T06:50:50.928Z,34.08
2023-12-10T06:51:51.008Z,34.10
2023-12-10T06:52:50.905Z,34.15
2023-12-10T06:53:50.893Z,34.07
2023-12-10T06:54:50.915Z,34.08
2023-12-10T06:55:50.882Z,34.14
2023-12-10T06:56:50.863Z,34.11
2023-12-10T06:57:50.900Z,34.11
2023-12-10T06:58:50.840Z,34.10
2023-12-10T06:59:50.836Z,34.05
2023-12-10T07:00:50.871Z,34.06
2023-12-10T07:01:50.837Z,34.12
2023-12-10T07:02:50.818Z,34.11
2023-12-10T07:03:50.873Z,34.10
2023-12-10T07:04:50.818Z,34.09
2023-12-10T07:05:50.795Z,34.07
2023-12-10T07:06:50.807Z,34.11
2023-12-10T07:07:50.764Z,34.07
2023-12-10T07:08:50.766Z,34.12
2023-12-10T07:09:50.768Z,34.11
2023-12-10T07:10:50.737Z,34.05
2023-12-10T07:11:50.723Z,34.07
2023-12-10T07:12:50.754Z,34.06
2023-12-10T07:13:50.708Z,34.06
2023-12-10T07:14:51.780Z,34.06
2023-12-10T07:15:50.718Z,34.09
2023-12-10T07:16:50.729Z,34.11
2023-12-10T07:17:50.765Z,34.09
2023-12-10T07:18:50.758Z,34.10
2023-12-10T07:19:50.820Z,34.06
2023-12-10T07:20:50.636Z,34.05
2023-12-10T07:21:50.663Z,34.02
2023-12-10T07:22:50.612Z,34.06
2023-12-10T07:23:50.626Z,34.09
2023-12-10T07:24:50.659Z,34.10
2023-12-10T07:25:50.606Z,34.05
2023-12-10T07:26:50.595Z,34.05
2023-12-10T07:27:50.625Z,34.06
2023-12-10T07:28:50.578Z,34.02
2023-12-10T07:29:50.551Z,34.09
2023-12-10T07:30:50.588Z,34.06
2023-12-10T07:31:50.561Z,34.01
2023-12-10T07:32:50.568Z,34.04
2023-12-10T07:33:50.641Z,34.05
2023-12-10T07:34:50.539Z,34.02
2023-12-10T07:35:50.513Z,34.07
2023-12-10T07:36:50.526Z,34.05
2023-12-10T07:37:50.496Z,34.01
2023-12-10T07:38:50.483Z,34.08
2023-12-10T07:39:50.510Z,34.06
2023-12-10T07:40:50.464Z,34.02
2023-12-10T07:41:50.447Z,34.05
2023-12-10T07:42:50.470Z,34.06
2023-12-10T07:43:50.426Z,34.02
2023-12-10T07:44:50.411Z,34.04
2023-12-10T07:45:50.475Z,34.00
2023-12-10T07:46:50.399Z,33.97
2023-12-10T07:47:50.540Z,34.03
2023-12-10T07:48:50.498Z,34.06
2023-12-10T07:49:50.526Z,34.02
2023-12-10T07:50:50.375Z,34.03
2023-12-10T07:51:55.414Z,34.03
2023-12-10T07:52:50.347Z,34.03
2023-12-10T07:53:50.354Z,34.03
2023-12-10T07:54:50.349Z,33.99
2023-12-10T07:55:50.321Z,34.01
2023-12-10T07:56:50.334Z,34.01
2023-12-10T07:57:50.321Z,34.01
2023-12-10T07:58:50.282Z,34.03
2023-12-10T07:59:50.279Z,34.05
2023-12-10T08:00:50.355Z,34.07
2023-12-10T08:01:50.282Z,34.04
2023-12-10T08:02:50.256Z,34.05
2023-12-10T08:03:50.387Z,34.01
2023-12-10T08:04:50.260Z,34.03
2023-12-10T08:05:50.230Z,34.04
2023-12-10T08:06:55.279Z,34.02
2023-12-10T08:07:50.233Z,34.03
2023-12-10T08:08:50.203Z,34.04
2023-12-10T08:09:50.227Z,34.05
2023-12-10T08:10:51.765Z,33.99
2023-12-10T08:11:50.204Z,33.99
2023-12-10T08:12:50.251Z,34.03
2023-12-10T08:13:50.794Z,34.02
2023-12-10T08:14:50.149Z,34.02
2023-12-10T08:15:50.164Z,34.04
2023-12-10T08:16:50.119Z,34.03
2023-12-10T08:17:50.218Z,33.99
2023-12-10T08:18:50.198Z,33.99
2023-12-10T08:19:50.183Z,33.96
2023-12-10T08:20:50.077Z,33.95
2023-12-10T08:21:50.133Z,34.03
2023-12-10T08:22:50.091Z,34.00
2023-12-10T08:23:50.058Z,33.98
2023-12-10T08:24:50.118Z,33.99
2023-12-10T08:25:50.054Z,33.99
2023-12-10T08:26:50.047Z,33.95
2023-12-10T08:27:50.082Z,34.02
2023-12-10T08:28:50.040Z,33.97
2023-12-10T08:29:50.002Z,33.97
2023-12-10T08:30:50.045Z,33.98
2023-12-10T08:31:49.988Z,33.98
2023-12-10T08:32:50.023Z,33.94
2023-12-10T08:33:50.229Z,33.98
2023-12-10T08:34:50.029Z,33.98
2023-12-10T08:35:49.981Z,33.97
2023-12-10T08:36:50.029Z,33.94
2023-12-10T08:37:49.961Z,33.95
2023-12-10T08:38:49.921Z,33.98
2023-12-10T08:39:50.040Z,33.97
2023-12-10T08:40:49.892Z,33.91
2023-12-10T08:41:49.911Z,33.97
2023-12-10T08:42:49.899Z,33.94
2023-12-10T08:43:49.890Z,33.95
2023-12-10T08:44:49.856Z,33.97
2023-12-10T08:45:49.942Z,33.93
2023-12-10T08:46:49.844Z,33.97
2023-12-10T08:47:49.967Z,33.95
2023-12-10T08:48:50.056Z,33.98
2023-12-10T08:49:49.848Z,33.96
2023-12-10T08:50:49.832Z,33.93
2023-12-10T08:51:49.824Z,33.93
2023-12-10T08:52:49.782Z,33.92
2023-12-10T08:53:49.803Z,33.93
2023-12-10T08:54:49.790Z,33.90
2023-12-10T08:55:49.777Z,33.94
2023-12-10T08:56:49.756Z,33.89
2023-12-10T08:57:49.793Z,33.91
2023-12-10T08:58:49.751Z,33.87
2023-12-10T08:59:49.744Z,33.87
2023-12-10T09:00:49.831Z,33.91
2023-12-10T09:01:49.750Z,33.89
2023-12-10T09:02:49.710Z,33.89
2023-12-10T09:03:49.775Z,33.90
2023-12-10T09:04:49.746Z,33.86
2023-12-10T09:05:49.678Z,33.88
2023-12-10T09:06:49.690Z,33.88
2023-12-10T09:07:49.669Z,33.88
2023-12-10T09:08:49.648Z,33.87
2023-12-10T09:09:53.619Z,33.90
2023-12-10T09:10:50.619Z,33.90
2023-12-10T09:11:49.643Z,33.91
2023-12-10T09:12:49.639Z,33.84
2023-12-10T09:13:49.656Z,33.87
2023-12-10T09:14:49.580Z,33.85
2023-12-10T09:15:49.595Z,33.83
2023-12-10T09:16:49.568Z,33.85
2023-12-10T09:17:49.714Z,33.82
2023-12-10T09:18:49.663Z,33.83
2023-12-10T09:19:49.582Z,33.84
2023-12-10T09:20:49.521Z,33.85
2023-12-10T09:21:49.569Z,33.83
2023-12-10T09:22:49.518Z,33.82
2023-12-10T09:23:49.514Z,33.81
2023-12-10T09:24:49.523Z,33.83
2023-12-10T09:25:49.497Z,33.82
2023-12-10T09:26:49.504Z,33.85
2023-12-10T09:27:49.563Z,33.81
2023-12-10T09:28:49.474Z,33.78
2023-12-10T09:29:49.447Z,33.80
2023-12-10T09:30:49.518Z,33.78
2023-12-10T09:31:49.437Z,33.80
2023-12-10T09:32:49.471Z,33.80
2023-12-10T09:33:49.460Z,33.82
2023-12-10T09:34:49.509Z,33.78
2023-12-10T09:35:49.408Z,33.80
2023-12-10T09:36:49.414Z,33.78
2023-12-10T09:37:49.400Z,33.77
2023-12-10T09:38:49.373Z,33.76
2023-12-10T09:39:49.408Z,33.76
2023-12-10T09:40:49.346Z,33.80
2023-12-10T09:41:49.379Z,33.74
2023-12-10T09:42:59.446Z,33.78
2023-12-10T09:43:49.332Z,33.78
2023-12-10T09:44:49.309Z,33.75
2023-12-10T09:45:49.348Z,33.72
2023-12-10T09:46:49.284Z,33.74
2023-12-10T09:47:49.370Z,33.75
2023-12-10T09:48:49.394Z,33.78
2023-12-10T09:49:49.301Z,33.75
2023-12-10T09:50:49.273Z,33.77
2023-12-10T09:51:49.368Z,33.71
2023-12-10T09:52:49.263Z,33.71
2023-12-10T09:53:49.271Z,33.74
2023-12-10T09:54:49.294Z,33.77
2023-12-10T09:55:49.218Z,33.72
2023-12-10T09:56:49.217Z,33.75
2023-12-10T09:57:49.276Z,33.76
2023-12-10T09:58:49.199Z,33.77
2023-12-10T09:59:49.178Z,33.77
2023-12-10T10:00:49.216Z,33.77
2023-12-10T10:01:49.187Z,33.72
2023-12-10T10:02:49.152Z,33.76
2023-12-10T10:03:49.300Z,33.74
2023-12-10T10:04:49.226Z,33.74
2023-12-10T10:05:49.198Z,33.71
2023-12-10T10:06:49.169Z,33.74
2023-12-10T10:07:49.115Z,33.77
2023-12-10T10:08:49.096Z,33.70
2023-12-10T10:09:49.125Z,33.76
2023-12-10T10:10:49.087Z,33.70
2023-12-10T10:11:49.081Z,33.72
2023-12-10T10:12:49.094Z,33.73
2023-12-10T10:13:49.072Z,33.71
2023-12-10T10:14:49.069Z,33.68
2023-12-10T10:15:49.082Z,33.69
2023-12-10T10:16:49.037Z,33.71
2023-12-10T10:17:51.195Z,33.71
2023-12-10T10:18:49.210Z,33.72
2023-12-10T10:19:49.094Z,33.68
2023-12-10T10:20:48.985Z,33.71
2023-12-10T10:21:49.030Z,33.72
2023-12-10T10:22:48.968Z,33.69
2023-12-10T10:23:48.978Z,33.70
2023-12-10T10:24:48.993Z,33.75
2023-12-10T10:25:48.956Z,33.67
2023-12-10T10:26:48.936Z,33.67
2023-12-10T10:27:48.963Z,33.65
2023-12-10T10:28:48.930Z,33.74
2023-12-10T10:29:48.926Z,33.64
2023-12-10T10:30:48.930Z,33.65
2023-12-10T10:31:48.904Z,33.67
2023-12-10T10:32:49.835Z,33.67
2023-12-10T10:33:48.956Z,33.68
2023-12-10T10:34:48.987Z,33.65
2023-12-10T10:35:48.868Z,33.71
2023-12-10T10:36:48.917Z,33.71
2023-12-10T10:37:48.861Z,33.68
2023-12-10T10:38:48.857Z,33.66
2023-12-10T10:39:48.870Z,33.62
2023-12-10T10:40:48.812Z,33.66
2023-12-10T10:41:48.810Z,33.66
2023-12-10T10:42:48.801Z,33.67
2023-12-10T10:43:48.795Z,33.63
2023-12-10T10:44:48.803Z,33.69
2023-12-10T10:45:48.832Z,33.62
2023-12-10T10:46:48.791Z,33.65
2023-12-10T10:47:48.883Z,33.64
2023-12-10T10:48:48.806Z,33.65
2023-12-10T10:50:19.018Z,33.61
2023-12-10T10:50:49.756Z,33.66
2023-12-10T10:51:48.725Z,33.67
2023-12-10T10:52:48.720Z,33.62
2023-12-10T10:53:48.716Z,33.61
2023-12-10T10:54:48.719Z,33.61
2023-12-10T10:55:48.690Z,33.61
2023-12-10T10:56:48.669Z,33.64
2023-12-10T10:57:48.707Z,33.61
2023-12-10T10:58:53.695Z,33.62
2023-12-10T10:59:48.661Z,33.61
2023-12-10T11:00:48.751Z,33.60
2023-12-10T11:01:48.731Z,33.59
2023-12-10T11:02:48.661Z,33.56
2023-12-10T11:03:48.672Z,33.60
2023-12-10T11:04:48.706Z,33.56
2023-12-10T11:05:48.656Z,33.60
2023-12-10T11:06:49.409Z,33.57
2023-12-10T11:07:48.592Z,33.61
2023-12-10T11:08:48.587Z,33.60
2023-12-10T11:09:48.589Z,33.59
2023-12-10T11:10:48.562Z,33.58
2023-12-10T11:11:48.536Z,33.55
2023-12-10T11:12:48.560Z,33.58
2023-12-10T11:13:48.558Z,33.56
2023-12-10T11:14:48.518Z,33.57
2023-12-10T11:15:48.538Z,33.59
2023-12-10T11:16:48.500Z,33.56
2023-12-10T11:17:48.566Z,33.54
2023-12-10T11:18:48.592Z,33.56
2023-12-10T11:19:48.562Z,33.53
2023-12-10T11:20:48.557Z,33.57
2023-12-10T11:21:48.468Z,33.50
2023-12-10T11:22:48.442Z,33.52
2023-12-10T11:23:48.448Z,33.54
2023-12-10T11:24:48.483Z,33.48
2023-12-10T11:25:48.450Z,33.49
2023-12-10T11:26:48.439Z,33.50
2023-12-10T11:27:48.409Z,33.47
2023-12-10T11:28:48.423Z,33.47
2023-12-10T11:29:48.380Z,33.45
2023-12-10T11:30:48.412Z,33.50
2023-12-10T11:31:48.377Z,33.45
2023-12-10T11:32:48.457Z,33.48
2023-12-10T11:33:48.474Z,33.50
2023-12-10T11:34:48.511Z,33.48
2023-12-10T11:36:17.588Z,33.49
2023-12-10T11:36:49.404Z,33.45
2023-12-10T11:37:48.331Z,33.45
2023-12-10T11:38:48.317Z,33.46
2023-12-10T11:39:48.382Z,33.45
2023-12-10T11:40:48.282Z,33.47
2023-12-10T11:41:56.347Z,33.47
2023-12-10T11:42:49.323Z,33.49
2023-12-10T11:43:48.277Z,33.42
2023-12-10T11:44:49.469Z,33.45
2023-12-10T11:45:48.262Z,33.46
2023-12-10T11:46:51.102Z,33.42
2023-12-10T11:47:48.326Z,33.46
2023-12-10T11:48:48.311Z,33.41
2023-12-10T11:49:48.257Z,33.42
2023-12-10T11:50:48.212Z,33.42
2023-12-10T11:51:48.237Z,33.43
2023-12-10T11:52:48.186Z,33.41
2023-12-10T11:53:48.162Z,33.41
2023-12-10T11:54:48.181Z,33.43
2023-12-10T11:55:48.145Z,33.39
2023-12-10T11:56:48.154Z,33.44
2023-12-10T11:57:48.158Z,33.42
2023-12-10T11:58:48.133Z,33.46
2023-12-10T11:59:48.138Z,33.41
2023-12-10T12:00:48.168Z,33.44
2023-12-10T12:01:48.222Z,33.44
2023-12-10T12:02:48.110Z,33.41
2023-12-10T12:03:48.174Z,33.48
2023-12-10T12:04:48.122Z,33.43
2023-12-10T12:05:48.067Z,33.47
2023-12-10T12:06:48.247Z,33.43
2023-12-10T12:07:48.056Z,33.47
2023-12-10T12:08:48.065Z,33.45
2023-12-10T12:09:48.049Z,33.40
2023-12-10T12:10:48.042Z,33.43
2023-12-10T12:11:48.005Z,33.40
2023-12-10T12:12:48.102Z,33.40
2023-12-10T12:13:48.061Z,33.43
2023-12-10T12:14:47.996Z,33.46
2023-12-10T12:15:48.037Z,33.40
2023-12-10T12:16:47.974Z,33.42
2023-12-10T12:17:48.041Z,33.39
2023-12-10T12:18:48.036Z,33.41
2023-12-10T12:19:48.038Z,33.42
2023-12-10T12:20:47.929Z,33.41
2023-12-10T12:21:47.975Z,33.41
2023-12-10T12:22:49.403Z,33.43
2023-12-10T12:23:47.919Z,33.42
2023-12-10T12:24:47.941Z,33.38
2023-12-10T12:25:47.896Z,33.41
2023-12-10T12:26:47.887Z,33.43
2023-12-10T12:27:47.957Z,33.42
2023-12-10T12:28:48.955Z,33.42
2023-12-10T12:29:47.864Z,33.42
2023-12-10T12:30:47.892Z,33.39
2023-12-10T12:32:05.061Z,33.42
2023-12-10T12:32:48.978Z,33.41
2023-12-10T12:33:48.078Z,33.38
2023-12-10T12:34:47.951Z,33.45
2023-12-10T12:35:47.813Z,33.41
2023-12-10T12:36:47.833Z,33.44
2023-12-10T12:37:47.776Z,33.43
2023-12-10T12:38:47.807Z,33.40
2023-12-10T12:39:47.798Z,33.46
2023-12-10T12:40:47.774Z,33.39
2023-12-10T12:41:47.770Z,33.43
2023-12-10T12:42:47.759Z,33.43
2023-12-10T12:43:47.754Z,33.42
2023-12-10T12:44:47.725Z,33.45
2023-12-10T12:45:47.742Z,33.47
2023-12-10T12:46:48.977Z,33.45
2023-12-10T12:47:47.768Z,33.42
2023-12-10T12:48:47.746Z,33.42
2023-12-10T12:49:47.756Z,33.43
2023-12-10T12:50:47.696Z,33.50
2023-12-10T12:51:47.721Z,33.45
2023-12-10T12:52:48.951Z,33.46